createdAt,value
2023-03-03T00:04:42.741Z,6.07
2023-03-03T00:09:44.187Z,7.82
2023-03-03T00:14:45.638Z,3.75
2023-03-03T00:19:47.427Z,2.20
2023-03-03T00:24:49.743Z,2.88
2023-03-03T00:29:53.637Z,5.15
2023-03-03T00:34:56.598Z,4.32
2023-03-03T00:40:16.496Z,4.07
2023-03-03T00:45:38.202Z,5.45
2023-03-03T00:50:39.997Z,2.78
2023-03-03T00:55:41.522Z,8.13
2023-03-03T01:00:42.985Z,2.88
2023-03-03T01:05:44.455Z,2.67
2023-03-03T01:10:53.106Z,3.55
2023-03-03T01:15:54.632Z,6.97
2023-03-03T01:20:56.110Z,4.00
2023-03-03T01:25:57.744Z,2.80
2023-03-03T01:31:03.952Z,11.60
2023-03-03T01:36:05.789Z,3.30
2023-03-03T01:41:07.259Z,5.25
2023-03-03T01:46:08.622Z,2.92
2023-03-03T01:51:27.540Z,3.00
2023-03-03T01:56:29.026Z,2.67
2023-03-03T02:01:30.534Z,3.83
2023-03-03T02:06:35.312Z,6.22
2023-03-03T02:11:37.165Z,3.88
2023-03-03T02:16:39.170Z,4.70
2023-03-03T02:21:40.645Z,3.60
2023-03-03T02:26:42.124Z,4.05
2023-03-03T02:31:43.991Z,2.90
2023-03-03T02:36:45.506Z,6.10
2023-03-03T02:41:53.842Z,4.55
2023-03-03T02:46:55.394Z,4.00
2023-03-03T02:51:56.850Z,4.70
2023-03-03T02:56:58.931Z,5.57
2023-03-03T03:02:00.377Z,4.53
2023-03-03T03:07:01.860Z,3.83
2023-03-03T03:12:03.337Z,4.85
2023-03-03T03:17:04.855Z,4.97
2023-03-03T03:22:06.334Z,4.13
2023-03-03T03:27:08.716Z,3.40
2023-03-03T03:32:10.269Z,3.97
2023-03-03T03:37:11.780Z,2.58
2023-03-03T03:42:13.267Z,2.67
2023-03-03T03:47:14.747Z,3.45
2023-03-03T03:52:16.217Z,3.38
2023-03-03T03:57:17.711Z,3.78
2023-03-03T04:02:19.288Z,3.00
2023-03-03T04:07:20.820Z,4.18
2023-03-03T04:12:22.337Z,1.95
2023-03-03T04:17:24.946Z,4.53
2023-03-03T04:22:26.480Z,1.60
2023-03-03T04:27:27.930Z,2.67
2023-03-03T04:32:30.367Z,2.17
2023-03-03T04:37:31.860Z,5.10
2023-03-03T04:42:33.414Z,6.20
2023-03-03T04:47:35.467Z,5.93
2023-03-03T04:52:36.986Z,3.88
2023-03-03T04:57:38.712Z,5.05
2023-03-03T05:02:40.810Z,6.75
2023-03-03T05:07:42.268Z,4.93
2023-03-03T05:12:44.118Z,5.75
2023-03-03T05:17:45.583Z,5.30
2023-03-03T05:22:47.178Z,3.28
2023-03-03T05:27:48.631Z,3.53
2023-03-03T05:32:50.145Z,2.08
2023-03-03T05:37:52.681Z,5.00
2023-03-03T05:42:54.195Z,3.78
2023-03-03T05:47:55.715Z,3.97
2023-03-03T05:52:57.243Z,7.65
2023-03-03T05:57:58.710Z,4.78
2023-03-03T06:03:00.491Z,3.60
2023-03-03T06:08:02.016Z,5.00
2023-03-03T06:13:03.512Z,4.63
2023-03-03T06:18:05.000Z,3.28
2023-03-03T06:23:06.481Z,2.28
2023-03-03T06:28:07.962Z,4.18
2023-03-03T06:33:09.433Z,5.07
2023-03-03T06:38:10.882Z,4.35
2023-03-03T06:43:12.468Z,3.17
2023-03-03T06:48:13.936Z,5.65
2023-03-03T06:53:16.270Z,4.70
2023-03-03T06:58:19.070Z,5.00
2023-03-03T07:03:24.895Z,2.83
2023-03-03T07:08:28.668Z,4.70
2023-03-03T07:13:31.159Z,5.10
2023-03-03T07:18:40.394Z,3.70
2023-03-03T07:23:44.911Z,5.72
2023-03-03T07:28:57.527Z,5.90
2023-03-03T07:33:59.688Z,2.22
2023-03-03T07:39:05.464Z,3.33
2023-03-03T07:44:12.564Z,5.45
2023-03-03T07:49:24.761Z,4.85
2023-03-03T07:54:28.891Z,4.50
2023-03-03T07:59:30.363Z,6.28
2023-03-03T08:04:40.733Z,8.90
2023-03-03T08:09:54.730Z,6.72
2023-03-03T08:14:56.673Z,8.38
2023-03-03T08:19:58.144Z,7.70
2023-03-03T08:24:59.611Z,7.15
2023-03-03T08:30:01.067Z,6.90
2023-03-03T08:35:02.521Z,5.78
2023-03-03T08:40:04.152Z,9.77
2023-03-03T08:45:05.920Z,9.75
2023-03-03T08:50:07.447Z,6.07
2023-03-03T08:55:09.073Z,8.23
2023-03-03T09:00:12.793Z,12.90
2023-03-03T09:05:14.354Z,12.98
2023-03-03T09:10:17.852Z,6.95
2023-03-03T09:15:34.995Z,8.40
2023-03-03T09:20:38.216Z,3.55
2023-03-03T09:25:42.171Z,8.55
2023-03-03T09:30:47.145Z,9.10
2023-03-03T09:36:08.979Z,6.88
2023-03-03T09:41:13.060Z,9.18
2023-03-03T09:46:39.605Z,8.35
2023-03-03T09:51:51.132Z,16.08
2023-03-03T09:57:09.865Z,13.95
2023-03-03T10:02:32.335Z,7.90
2023-03-03T10:07:52.692Z,8.25
2023-03-03T10:13:03.468Z,11.65
2023-03-03T10:18:16.650Z,6.78
2023-03-03T10:23:42.767Z,15.55
2023-03-03T10:29:06.695Z,18.38
2023-03-03T10:34:33.370Z,13.13
2023-03-03T10:39:39.746Z,14.23
2023-03-03T10:45:03.099Z,19.90
2023-03-03T10:50:19.311Z,17.63
2023-03-03T11:00:51.210Z,18.83
2023-03-03T11:05:59.024Z,14.38
2023-03-03T11:11:21.562Z,17.52
2023-03-03T11:16:44.580Z,16.13
2023-03-03T11:21:45.909Z,17.38
2023-03-03T11:27:02.670Z,16.63
2023-03-03T11:32:10.011Z,9.30
2023-03-03T11:37:16.082Z,13.98
2023-03-03T11:42:47.234Z,16.70
2023-03-03T11:48:23.533Z,21.13
2023-03-03T11:53:30.654Z,11.63
2023-03-03T11:58:46.807Z,14.75
2023-03-03T12:03:56.637Z,23.02
2023-03-03T12:09:16.485Z,30.98
2023-03-03T12:14:42.840Z,16.52
2023-03-03T12:20:22.065Z,20.80
2023-03-03T12:25:42.393Z,14.80
2023-03-03T12:30:49.315Z,16.63
2023-03-03T12:36:25.423Z,16.55
2023-03-03T12:41:37.415Z,18.20
2023-03-03T12:46:57.640Z,22.63
2023-03-03T12:52:10.530Z,15.35
2023-03-03T12:57:43.083Z,18.58
2023-03-03T13:03:06.791Z,19.33
2023-03-03T13:08:31.290Z,19.95
2023-03-03T13:13:54.161Z,20.92
2023-03-03T13:19:04.682Z,15.88
2023-03-03T13:24:18.293Z,19.25
2023-03-03T13:29:27.558Z,24.05
2023-03-03T13:35:01.861Z,21.38
2023-03-03T13:40:13.275Z,25.38
2023-03-03T13:45:17.884Z,14.10
2023-03-03T13:50:33.402Z,23.40
2023-03-03T13:55:45.319Z,18.33
2023-03-03T14:01:20.600Z,22.48
2023-03-03T14:11:26.335Z,18.35
2023-03-03T14:16:52.872Z,21.38
2023-03-03T14:22:05.580Z,28.50
2023-03-03T14:27:21.529Z,20.73
2023-03-03T14:37:46.245Z,23.85
2023-03-03T14:42:48.994Z,22.38
2023-03-03T14:47:50.796Z,28.35
2023-03-03T14:53:20.284Z,16.17
2023-03-03T14:58:28.942Z,21.60
2023-03-03T15:03:30.462Z,20.52
2023-03-03T15:08:34.070Z,23.13
2023-03-03T15:13:35.688Z,21.40
2023-03-03T15:18:53.911Z,16.58
2023-03-03T15:24:12.428Z,28.00
2023-03-03T15:29:33.130Z,25.42
2023-03-03T15:34:48.886Z,24.70
2023-03-03T15:40:14.841Z,26.38
2023-03-03T15:45:22.188Z,30.35
2023-03-03T15:50:54.346Z,23.75
2023-03-03T15:56:36.992Z,35.55
2023-03-03T16:01:45.161Z,33.08
2023-03-03T16:06:59.433Z,26.38
2023-03-03T16:12:20.306Z,17.27
2023-03-03T16:17:56.096Z,26.95
2023-03-03T16:23:22.586Z,26.92
2023-03-03T16:29:01.572Z,25.30
2023-03-03T16:34:06.748Z,36.63
2023-03-03T16:39:25.850Z,26.42
2023-03-03T16:44:58.142Z,24.65
2023-03-03T16:50:22.411Z,25.02
2023-03-03T16:55:56.356Z,21.92
2023-03-03T17:01:00.803Z,25.90
2023-03-03T17:06:29.461Z,29.98
2023-03-03T17:11:30.808Z,22.20
2023-03-03T17:16:52.583Z,26.88
2023-03-03T17:22:29.701Z,26.02
2023-03-03T17:27:58.571Z,31.10
2023-03-03T17:33:09.464Z,21.48
2023-03-03T17:38:48.861Z,29.55
2023-03-03T17:43:57.252Z,20.30
2023-03-03T17:49:10.581Z,23.13
2023-03-03T17:54:40.013Z,18.40
2023-03-03T17:59:44.083Z,18.65
2023-03-03T18:05:19.553Z,19.10
2023-03-03T18:10:26.558Z,22.58
2023-03-03T18:15:33.777Z,30.40
2023-03-03T18:20:56.660Z,16.73
2023-03-03T18:25:59.901Z,15.93
2023-03-03T18:36:31.868Z,16.60
2023-03-03T18:46:44.390Z,16.33
2023-03-03T18:51:46.918Z,16.30
2023-03-03T18:56:57.727Z,14.73
2023-03-03T19:02:17.916Z,22.63
2023-03-03T19:07:26.680Z,17.10
2023-03-03T19:12:57.874Z,11.43
2023-03-03T19:18:35.925Z,16.38
2023-03-03T19:23:54.430Z,14.18
2023-03-03T19:29:09.016Z,18.38
2023-03-03T19:34:34.931Z,10.50
2023-03-03T19:39:51.267Z,16.70
2023-03-03T19:50:22.325Z,12.82
2023-03-03T19:55:34.871Z,16.95
2023-03-03T20:00:43.384Z,18.80
2023-03-03T20:06:21.941Z,15.50
2023-03-03T20:11:37.941Z,19.42
2023-03-03T20:16:41.475Z,17.50
2023-03-03T20:21:55.233Z,19.10
2023-03-03T20:27:08.676Z,13.43
2023-03-03T20:32:41.441Z,19.63
2023-03-03T20:38:22.253Z,21.98
2023-03-03T20:43:44.819Z,16.88
2023-03-03T20:49:08.282Z,21.30
2023-03-03T20:54:40.149Z,14.10
2023-03-03T21:00:15.434Z,21.65
2023-03-03T21:05:18.463Z,15.77
2023-03-03T21:10:27.703Z,18.75
2023-03-03T21:15:31.103Z,16.95
2023-03-03T21:25:41.161Z,22.45
2023-03-03T21:31:07.963Z,17.67
2023-03-03T21:36:10.576Z,17.48
2023-03-03T21:41:12.704Z,13.02
2023-03-03T21:46:18.113Z,16.55
2023-03-03T21:51:21.280Z,21.23
2023-03-03T21:56:22.738Z,14.63
2023-03-03T22:01:24.417Z,15.07
2023-03-03T22:06:25.911Z,12.93
2023-03-03T22:11:27.379Z,16.23
2023-03-03T22:16:28.902Z,16.63
2023-03-03T22:21:30.655Z,15.50
2023-03-03T22:26:32.128Z,17.73
2023-03-03T22:31:33.699Z,13.50
2023-03-03T22:36:35.203Z,17.10
2023-03-03T22:41:36.711Z,12.80
2023-03-03T22:46:38.286Z,14.13
2023-03-03T22:51:39.829Z,12.60
2023-03-03T22:56:41.311Z,14.05
2023-03-03T23:01:42.816Z,10.00
2023-03-03T23:06:45.021Z,8.43
2023-03-03T23:11:46.500Z,8.55
2023-03-03T23:16:47.999Z,17.08
2023-03-03T23:21:49.489Z,12.25
2023-03-03T23:26:57.465Z,8.30
2023-03-03T23:31:59.030Z,8.85
2023-03-03T23:37:00.506Z,11.07
2023-03-03T23:42:01.954Z,8.60
2023-03-03T23:47:04.582Z,10.57
2023-03-03T23:52:06.328Z,9.85
2023-03-03T23:57:08.084Z,15.52
